Time;durP1;ratioP1;P1;durP2;ratioP2;P2;SDS_P1;SDS_P2;PMS_P1;PMS_P2;Temp;Humidity;BMP_temperature;BMP_pressure;BME280_temperature;BME280_humidity;BME280_pressure;Samples;Min_cycle;Max_cycle;Signal;HPM_P1;HPM_P2
2022/10/31 00:00:20;;;;;;;8.82;5.05;;;;;;;15.10;48.76;95728.06;5110819;28;20121;-76
2022/10/31 00:02:46;;;;;;;9.20;4.25;;;;;;;14.66;49.14;95693.66;5101210;27;20027;-76
2022/10/31 00:05:11;;;;;;;7.93;4.50;;;;;;;14.58;48.98;95679.06;5102315;28;20445;-76
2022/10/31 00:07:37;;;;;;;11.57;5.38;;;;;;;14.48;49.14;95683.75;5104020;27;20081;-75
2022/10/31 00:10:02;;;;;;;11.77;4.97;;;;;;;14.73;49.59;95738.69;5131085;27;20107;-76
2022/10/31 00:12:28;;;;;;;9.75;4.78;;;;;;;14.29;50.27;95684.44;5114344;27;20035;-76
2022/10/31 00:14:53;;;;;;;10.75;4.53;;;;;;;14.33;50.10;95667.88;5110867;28;20039;-76
2022/10/31 00:17:18;;;;;;;11.40;5.43;;;;;;;14.58;50.43;95732.44;5110423;28;20517;-76
2022/10/31 00:19:44;;;;;;;9.25;4.55;;;;;;;14.44;50.43;95714.72;5110730;28;20091;-76
2022/10/31 00:22:09;;;;;;;10.07;4.82;;;;;;;14.51;50.64;95733.88;5110000;28;20023;-76
2022/10/31 00:24:35;;;;;;;11.27;5.07;;;;;;;14.24;50.79;95686.38;5096557;27;20035;-76
2022/10/31 00:27:00;;;;;;;11.05;5.95;;;;;;;14.25;50.97;95707.44;5112019;27;20583;-76
2022/10/31 00:29:26;;;;;;;10.02;5.43;;;;;;;14.36;51.04;95726.00;5112062;27;20047;-76
2022/10/31 00:31:52;;;;;;;10.48;5.43;;;;;;;14.24;50.89;95707.72;5125326;27;20039;-76
2022/10/31 00:34:17;;;;;;;10.32;5.15;;;;;;;14.41;51.29;95729.47;5094788;28;20036;-76
2022/10/31 00:36:43;;;;;;;12.18;5.25;;;;;;;14.27;51.53;95729.28;5110222;28;20490;-76
2022/10/31 00:39:08;;;;;;;8.52;5.05;;;;;;;14.35;51.74;95724.41;5110206;28;20036;-76
2022/10/31 00:41:34;;;;;;;10.57;4.57;;;;;;;14.10;51.77;95693.47;5110109;28;20060;-76
2022/10/31 00:43:59;;;;;;;9.18;5.15;;;;;;;14.05;51.36;95669.50;5110284;28;20123;-76
2022/10/31 00:46:26;;;;;;;10.70;4.80;;;;;;;14.26;51.06;95700.25;5107132;27;20039;-76
2022/10/31 00:48:51;;;;;;;14.45;5.45;;;;;;;14.46;51.10;95721.38;5111993;27;20039;-76
2022/10/31 00:51:16;;;;;;;9.18;4.80;;;;;;;14.25;51.48;95688.78;5115012;27;20473;-76
2022/10/31 00:53:42;;;;;;;14.98;5.13;;;;;;;14.11;51.63;95668.41;5091267;28;20039;-76
2022/10/31 00:56:07;;;;;;;11.25;4.95;;;;;;;14.49;51.62;95728.03;5109876;28;20064;-76
2022/10/31 00:58:33;;;;;;;9.05;4.88;;;;;;;14.51;51.50;95720.53;5091472;28;20032;-76
2022/10/31 01:00:58;;;;;;;15.27;5.60;;;;;;;14.51;50.88;95707.16;5095541;28;20457;-76
2022/10/31 01:03:29;;;;;;;9.32;5.47;;;;;;;14.71;50.70;95719.50;5130301;28;20019;-76
2022/10/31 01:06:07;;;;;;;9.75;5.50;;;;;;;14.73;50.93;95726.13;5124872;28;20071;-76
2022/10/31 01:08:34;;;;;;;9.00;5.57;;;;;;;14.73;50.68;95733.34;5099105;28;20035;-76
2022/10/31 01:11:02;;;;;;;11.65;5.50;;;;;;;14.82;50.76;95735.09;5130698;28;20102;-76
2022/10/31 01:13:28;;;;;;;15.55;5.75;;;;;;;14.55;50.75;95685.00;5099850;28;20039;-76
2022/10/31 01:15:55;;;;;;;7.95;4.90;;;;;;;14.78;50.85;95719.94;5105693;28;20029;-76
2022/10/31 01:18:21;;;;;;;11.05;5.72;;;;;;;14.53;51.33;95681.81;5130605;28;20032;-76
2022/10/31 01:20:46;;;;;;;13.38;5.43;;;;;;;14.43;50.91;95667.78;5111546;28;20023;-76
2022/10/31 01:23:11;;;;;;;13.55;6.45;;;;;;;14.53;51.08;95700.47;5130346;28;20031;-76
2022/10/31 01:25:37;;;;;;;14.32;6.90;;;;;;;14.51;51.33;95707.97;5095240;28;20394;-76
2022/10/31 01:28:02;;;;;;;12.80;6.30;;;;;;;14.36;51.47;95681.44;5109828;28;20042;-76
2022/10/31 01:30:28;;;;;;;14.05;6.68;;;;;;;14.37;51.28;95683.03;5109496;28;20031;-76
2022/10/31 01:32:53;;;;;;;12.98;6.15;;;;;;;14.02;52.58;95673.56;5124965;28;20028;-76
2022/10/31 01:35:18;;;;;;;12.68;5.90;;;;;;;14.30;52.42;95725.25;5091428;28;20397;-76
2022/10/31 01:37:44;;;;;;;15.18;7.07;;;;;;;14.19;52.10;95683.75;5109624;28;20084;-76
2022/10/31 01:40:10;;;;;;;13.50;6.32;;;;;;;14.53;51.82;95734.38;5113532;28;20027;-76
2022/10/31 01:42:35;;;;;;;18.83;8.18;;;;;;;14.33;52.15;95702.56;5113659;28;20023;-75
2022/10/31 01:45:01;;;;;;;17.38;8.93;;;;;;;14.48;52.50;95735.25;5101124;27;20055;-76
2022/10/31 01:47:45;;;;;;;17.05;8.98;;;;;;;14.26;52.00;95711.72;5134256;27;20039;-76
2022/10/31 01:50:22;;;;;;;17.00;9.52;;;;;;;14.44;52.05;95723.53;5103360;28;20039;-75
2022/10/31 01:52:50;;;;;;;17.85;10.23;;;;;;;14.55;52.21;95753.59;5095331;28;20562;-75
2022/10/31 01:55:22;;;;;;;19.40;10.60;;;;;;;14.46;52.67;95752.59;5113097;28;20118;-76
2022/10/31 01:57:51;;;;;;;20.63;10.05;;;;;;;14.49;52.10;95762.72;5113326;28;20027;-76
2022/10/31 02:00:18;;;;;;;20.30;10.55;;;;;;;14.23;52.42;95719.47;5094130;28;20421;-76
2022/10/31 02:02:46;;;;;;;20.85;10.50;;;;;;;14.47;52.45;95736.31;5113403;28;20034;-76
2022/10/31 02:05:18;;;;;;;27.83;10.77;;;;;;;14.21;52.18;95716.28;5112644;28;20023;-76
2022/10/31 02:07:58;;;;;;;21.00;10.52;;;;;;;14.28;52.37;95730.06;5112740;28;20043;-76
2022/10/31 02:10:24;;;;;;;18.20;10.60;;;;;;;14.41;52.59;95737.47;5094568;28;20039;-76
2022/10/31 02:12:57;;;;;;;19.65;10.05;;;;;;;14.06;52.37;95690.56;5113028;28;20106;-76
2022/10/31 02:15:22;;;;;;;22.00;9.25;;;;;;;14.17;52.72;95704.59;5097946;28;20031;-76
2022/10/31 02:17:48;;;;;;;17.92;9.88;;;;;;;14.37;52.92;95741.72;5094580;28;20038;-76
2022/10/31 02:20:20;;;;;;;17.58;10.30;;;;;;;14.38;52.99;95748.69;5112922;28;20063;-76
2022/10/31 02:22:52;;;;;;;17.13;9.93;;;;;;;14.34;53.31;95744.97;5094465;28;20031;-76
2022/10/31 02:25:26;;;;;;;;;;;;;;;14.36;52.93;95753.47;5094421;28;20028;-76
2022/10/31 02:28:01;;;;;;;20.45;10.60;;;;;;;14.37;52.78;95757.75;5113203;28;20429;-76
2022/10/31 02:30:46;;;;;;;16.05;9.52;;;;;;;14.37;52.88;95759.59;5094612;28;20069;-76
2022/10/31 02:33:23;;;;;;;20.38;10.70;;;;;;;14.30;53.29;95763.41;5076757;28;20071;-76
2022/10/31 02:35:59;;;;;;;17.45;10.48;;;;;;;13.99;53.00;95705.31;5112491;28;20024;-76
2022/10/31 02:38:58;;;;;;;21.38;10.95;;;;;;;14.35;53.21;95764.41;5099665;28;20032;-76
2022/10/31 02:41:32;;;;;;;17.98;9.90;;;;;;;14.30;53.46;95775.94;5093866;28;20592;-76
2022/10/31 02:44:03;;;;;;;19.77;10.02;;;;;;;14.28;53.68;95773.56;5099305;27;20055;-76
2022/10/31 02:46:41;;;;;;;22.95;9.27;;;;;;;14.28;53.45;95770.91;5098364;27;20027;-76
2022/10/31 02:49:16;;;;;;;20.25;9.35;;;;;;;14.24;53.65;95774.41;5126805;27;20077;-76
2022/10/31 02:51:43;;;;;;;23.05;10.18;;;;;;;14.22;53.52;95772.03;5116968;27;20042;-76
2022/10/31 02:54:26;;;;;;;18.50;9.43;;;;;;;13.83;53.40;95710.00;5112349;28;20035;-76
2022/10/31 02:56:58;;;;;;;16.25;9.27;;;;;;;14.22;53.45;95771.22;5112023;28;20036;-76
2022/10/31 02:59:24;;;;;;;22.17;10.95;;;;;;;13.85;53.75;95727.31;5127901;27;20031;-76
2022/10/31 03:01:55;;;;;;;21.00;9.23;;;;;;;14.05;53.96;95773.50;5112648;28;20478;-76
2022/10/31 03:04:59;;;;;;;19.88;8.57;;;;;;;14.13;53.85;95775.56;5111480;28;20073;-76
2022/10/31 03:07:57;;;;;;;18.52;9.95;;;;;;;13.40;53.70;95666.41;5069318;28;20139;-76
2022/10/31 03:10:35;;;;;;;19.02;8.60;;;;;;;14.14;53.54;95780.63;5093598;28;20126;-76
2022/10/31 03:13:06;;;;;;;19.25;9.05;;;;;;;14.16;53.62;95785.69;5111793;28;20027;-76
2022/10/31 03:15:44;;;;;;;17.85;8.85;;;;;;;13.92;53.49;95750.97;5111643;28;20156;-76
2022/10/31 03:18:18;;;;;;;21.48;7.85;;;;;;;14.01;54.08;95767.97;5111185;28;20047;-76
2022/10/31 03:21:05;;;;;;;17.67;9.55;;;;;;;13.99;53.70;95758.63;5093259;28;20501;-76
2022/10/31 03:23:34;;;;;;;27.48;9.52;;;;;;;14.01;54.21;95756.50;5111310;28;20035;-76
2022/10/31 03:26:01;;;;;;;19.08;8.93;;;;;;;13.94;54.35;95769.38;5111586;28;20084;-76
2022/10/31 03:28:32;;;;;;;19.23;8.98;;;;;;;13.93;54.22;95765.09;5111422;28;20032;-75
2022/10/31 03:30:59;;;;;;;20.70;8.93;;;;;;;13.79;54.22;95743.63;5093165;28;20036;-76
2022/10/31 03:33:31;;;;;;;25.73;10.00;;;;;;;13.94;53.90;95764.03;5092545;28;20039;-76
2022/10/31 03:36:00;;;;;;;24.17;9.77;;;;;;;13.66;54.10;95721.06;5111986;28;20028;-76
2022/10/31 03:38:28;;;;;;;27.73;9.65;;;;;;;13.49;54.60;95702.81;5092697;28;20497;-76
2022/10/31 03:40:58;;;;;;;19.88;9.88;;;;;;;14.06;54.68;95799.91;5093227;28;20032;-75
2022/10/31 03:43:28;;;;;;;19.27;9.10;;;;;;;13.73;54.48;95750.09;5110626;28;20039;-76
2022/10/31 03:45:54;;;;;;;25.80;11.65;;;;;;;13.98;54.45;95797.84;5111286;28;20442;-76
2022/10/31 03:48:21;;;;;;;24.95;11.95;;;;;;;13.89;54.65;95783.50;5110907;28;20039;-76
2022/10/31 03:50:56;;;;;;;39.03;12.52;;;;;;;13.84;54.55;95787.03;5103742;27;20027;-76
2022/10/31 03:53:34;;;;;;;24.73;12.65;;;;;;;13.62;54.97;95752.03;5104874;28;20027;-76
2022/10/31 03:56:05;;;;;;;24.65;12.23;;;;;;;13.91;54.79;95802.69;5092383;28;20121;-76
2022/10/31 03:58:39;;;;;;;30.85;12.00;;;;;;;13.39;55.31;95760.72;5124541;27;20039;-76
2022/10/31 04:01:07;;;;;;;34.95;13.55;;;;;;;13.58;55.12;95780.28;5095990;28;20563;-76
2022/10/31 04:03:36;;;;;;;23.10;11.93;;;;;;;13.33;55.21;95759.16;5091792;28;20028;-76
2022/10/31 04:06:06;;;;;;;25.90;13.88;;;;;;;13.74;55.20;95811.09;5110634;28;20038;-76
2022/10/31 04:08:38;;;;;;;29.60;12.23;;;;;;;13.78;54.97;95816.69;5091929;28;20131;-76
2022/10/31 04:11:05;;;;;;;25.70;12.73;;;;;;;13.30;55.32;95739.19;5092364;28;20077;-76
2022/10/31 04:13:37;;;;;;;36.85;12.45;;;;;;;13.61;55.22;95787.72;5110585;28;20510;-76
2022/10/31 04:16:03;;;;;;;24.58;12.82;;;;;;;13.26;55.68;95756.81;5099471;27;20027;-76
2022/10/31 04:18:28;;;;;;;35.40;14.48;;;;;;;13.48;55.50;95788.38;5103455;28;20036;-76
2022/10/31 04:21:03;;;;;;;25.15;13.18;;;;;;;13.59;55.85;95813.84;5110443;28;20035;-76
2022/10/31 04:23:30;;;;;;;24.00;12.93;;;;;;;13.10;55.61;95728.63;5097322;28;20130;-75
2022/10/31 04:25:56;;;;;;;27.10;12.57;;;;;;;13.64;55.69;95827.16;5109443;28;20677;-76
2022/10/31 04:28:21;;;;;;;29.52;12.55;;;;;;;12.97;56.25;95723.94;5098969;28;20042;-76
2022/10/31 04:30:47;;;;;;;27.55;13.40;;;;;;;13.32;56.56;95806.31;5105546;27;20040;-76
2022/10/31 04:33:12;;;;;;;30.17;12.98;;;;;;;13.51;56.23;95825.91;5110594;28;20043;-76
2022/10/31 04:35:38;;;;;;;25.30;12.52;;;;;;;13.49;56.57;95819.28;5092076;28;20063;-76
2022/10/31 04:38:03;;;;;;;28.40;12.95;;;;;;;13.08;56.34;95744.88;5091757;27;20484;-76
2022/10/31 04:40:28;;;;;;;29.98;13.07;;;;;;;13.60;56.19;95819.97;5109470;28;20089;-76
2022/10/31 04:42:54;;;;;;;33.70;13.55;;;;;;;13.25;56.61;95759.72;5110010;28;20444;-76
2022/10/31 04:45:19;;;;;;;37.80;13.73;;;;;;;13.46;56.31;95801.16;5107770;28;20426;-76
2022/10/31 04:47:45;;;;;;;28.63;13.13;;;;;;;13.41;56.26;95794.00;5096618;28;20093;-76
2022/10/31 04:50:10;;;;;;;27.20;12.38;;;;;;;13.53;56.75;95829.09;5109413;28;20466;-75
2022/10/31 04:52:43;;;;;;;32.15;11.93;;;;;;;13.44;57.22;95837.94;5110173;28;20055;-76
2022/10/31 04:55:10;;;;;;;29.35;12.77;;;;;;;13.24;57.31;95822.06;5091430;28;20073;-75
2022/10/31 04:57:43;;;;;;;23.85;11.90;;;;;;;12.97;57.13;95779.84;5110529;28;20027;-76
2022/10/31 05:00:10;;;;;;;28.95;13.40;;;;;;;12.80;57.52;95763.41;5090912;28;20035;-76
2022/10/31 05:02:43;;;;;;;24.58;12.13;;;;;;;13.20;57.61;95807.72;5110080;28;20039;-76
2022/10/31 05:05:08;;;;;;;27.80;12.38;;;;;;;13.14;57.46;95810.38;5128309;28;20042;-76
2022/10/31 05:07:38;;;;;;;27.23;11.98;;;;;;;13.20;57.65;95810.38;5112044;28;20118;-76
2022/10/31 05:10:04;;;;;;;28.13;12.63;;;;;;;13.04;57.43;95786.47;5129856;27;20122;-76
2022/10/31 05:12:29;;;;;;;27.27;12.43;;;;;;;13.34;57.93;95838.81;5123252;28;20099;-75
2022/10/31 05:14:54;;;;;;;36.22;13.93;;;;;;;12.99;57.71;95791.78;5114207;28;20036;-76
2022/10/31 05:17:20;;;;;;;35.88;15.77;;;;;;;13.40;57.85;95848.34;5104751;27;20059;-76
2022/10/31 05:19:45;;;;;;;34.47;15.57;;;;;;;13.48;57.53;95854.97;5123922;27;20063;-76
2022/10/31 05:22:10;;;;;;;30.90;14.40;;;;;;;13.49;57.54;95859.25;5113406;28;20050;-76
2022/10/31 05:24:36;;;;;;;28.48;13.77;;;;;;;13.52;57.85;95858.66;5095564;28;20059;-76
2022/10/31 05:27:01;;;;;;;34.50;14.40;;;;;;;13.58;57.58;95857.56;5108231;27;20118;-76
2022/10/31 05:29:27;;;;;;;33.13;14.63;;;;;;;13.33;57.86;95817.75;5115765;27;20031;-76
2022/10/31 05:31:52;;;;;;;31.58;16.00;;;;;;;13.44;57.53;95840.59;5133985;27;20031;-76
2022/10/31 05:34:17;;;;;;;33.03;15.98;;;;;;;13.32;57.69;95838.28;5102292;28;20089;-76
2022/10/31 05:36:43;;;;;;;40.70;18.48;;;;;;;13.39;57.71;95856.63;5113524;28;20098;-74
2022/10/31 05:39:08;;;;;;;42.70;17.92;;;;;;;13.22;57.44;95827.66;5113632;28;20378;-75
2022/10/31 05:41:33;;;;;;;36.85;17.02;;;;;;;13.29;57.51;95848.66;5112630;28;20039;-75
2022/10/31 05:43:59;;;;;;;45.03;17.50;;;;;;;13.50;57.92;95868.84;5112885;28;20034;-75
2022/10/31 05:46:24;;;;;;;41.15;18.15;;;;;;;13.54;57.54;95877.84;5094819;28;20516;-75
2022/10/31 05:48:50;;;;;;;43.63;20.13;;;;;;;13.13;58.08;95840.75;5113226;28;20035;-75
2022/10/31 05:51:15;;;;;;;52.65;19.13;;;;;;;13.33;57.93;95879.03;5094123;28;20043;-75
2022/10/31 05:53:41;;;;;;;34.88;18.17;;;;;;;13.11;57.66;95834.09;5113435;28;20042;-76
2022/10/31 05:56:06;;;;;;;40.63;17.35;;;;;;;13.14;58.19;95863.66;5113204;28;20031;-76
2022/10/31 05:58:32;;;;;;;43.83;17.98;;;;;;;13.06;57.86;95848.19;5112522;28;20115;-76
2022/10/31 06:00:57;;;;;;;38.03;17.88;;;;;;;13.27;57.71;95872.13;5110757;27;20047;-76
2022/10/31 06:03:22;;;;;;;34.72;17.00;;;;;;;13.33;58.21;95889.69;5106580;28;20541;-76
2022/10/31 06:05:48;;;;;;;45.40;17.40;;;;;;;13.40;57.72;95898.97;5110625;27;20050;-76
2022/10/31 06:08:13;;;;;;;36.03;16.10;;;;;;;13.28;57.65;95879.03;5094129;28;20071;-76
2022/10/31 06:10:38;;;;;;;28.42;15.00;;;;;;;12.82;57.44;95801.97;5096860;28;20027;-77
2022/10/31 06:13:06;;;;;;;40.35;14.32;;;;;;;13.46;57.21;95894.41;5095896;28;20067;-76
2022/10/31 06:15:31;;;;;;;31.48;15.20;;;;;;;13.49;57.30;95900.00;5112797;28;20035;-76
2022/10/31 06:18:02;;;;;;;30.02;14.70;;;;;;;13.53;57.03;95908.22;5127452;27;20130;-77
2022/10/31 06:20:27;;;;;;;33.13;14.27;;;;;;;13.33;56.91;95879.84;5097952;28;20084;-77
2022/10/31 06:22:53;;;;;;;42.35;14.38;;;;;;;13.57;56.92;95916.50;5107594;28;20473;-78
2022/10/31 06:25:18;;;;;;;41.90;16.20;;;;;;;13.08;56.99;95847.94;5096293;27;20054;-79
2022/10/31 06:27:43;;;;;;;32.72;16.77;;;;;;;13.27;57.11;95869.47;5113713;27;20428;-75
2022/10/31 06:30:09;;;;;;;46.78;17.30;;;;;;;13.41;57.12;95897.13;5130000;27;20401;-75
2022/10/31 06:32:35;;;;;;;39.45;16.40;;;;;;;13.26;57.24;95866.00;5098999;27;20045;-77
2022/10/31 06:35:00;;;;;;;41.25;16.02;;;;;;;13.33;57.08;95884.34;5125394;27;20444;-76
2022/10/31 06:37:26;;;;;;;32.22;15.63;;;;;;;13.32;57.24;95872.09;5112177;28;20036;-76
2022/10/31 06:39:51;;;;;;;26.90;14.27;;;;;;;13.68;56.94;95929.47;5101782;28;20035;-76
2022/10/31 06:42:17;;;;;;;26.27;13.27;;;;;;;13.57;57.29;95914.63;5118225;27;20529;-77
2022/10/31 06:44:42;;;;;;;30.63;13.52;;;;;;;13.55;56.81;95897.31;5092355;28;20051;-76
2022/10/31 06:47:08;;;;;;;28.52;12.88;;;;;;;13.61;56.83;95902.34;5112116;28;20493;-77
2022/10/31 06:49:33;;;;;;;33.20;15.07;;;;;;;13.75;57.39;95921.19;5112187;28;20038;-78
2022/10/31 06:51:58;;;;;;;37.72;15.25;;;;;;;13.87;57.08;95933.13;5111642;28;20039;-78
2022/10/31 06:54:24;;;;;;;37.05;16.05;;;;;;;13.57;57.40;95876.53;5107170;27;20033;-77
2022/10/31 06:56:49;;;;;;;29.67;16.50;;;;;;;13.51;58.31;95876.53;5132059;27;20103;-78
2022/10/31 06:59:15;;;;;;;24.40;15.38;;;;;;;13.79;58.86;95924.91;5113370;27;20027;-78
2022/10/31 07:01:41;;;;;;;36.05;17.33;;;;;;;13.93;58.24;95938.41;5094805;28;20097;-78
2022/10/31 07:04:09;;;;;;;31.88;15.90;;;;;;;13.56;58.45;95869.59;5110761;27;20035;-78
2022/10/31 07:06:34;;;;;;;32.17;16.42;;;;;;;13.70;58.82;95906.03;5132091;27;20031;-77
2022/10/31 07:08:59;;;;;;;31.17;17.17;;;;;;;13.63;58.19;95878.88;5113821;27;20576;-77
2022/10/31 07:11:25;;;;;;;35.45;17.05;;;;;;;14.03;58.67;95933.84;5111185;27;20035;-77
2022/10/31 07:13:50;;;;;;;31.00;15.73;;;;;;;13.58;58.17;95862.91;5124191;27;20466;-77
2022/10/31 07:16:16;;;;;;;31.08;17.25;;;;;;;13.57;58.16;95858.66;5108103;28;20023;-78
2022/10/31 07:18:41;;;;;;;33.40;17.00;;;;;;;13.94;57.99;95908.03;5092927;28;20038;-80
2022/10/31 07:21:07;;;;;;;30.55;16.65;;;;;;;13.67;58.00;95844.47;5095303;28;20031;-77
2022/10/31 07:23:32;;;;;;;28.92;16.00;;;;;;;13.90;58.24;95881.09;5111446;28;20027;-77
2022/10/31 07:25:59;;;;;;;24.23;15.45;;;;;;;13.93;57.88;95885.88;5091496;28;20031;-78
2022/10/31 07:28:26;;;;;;;28.00;15.63;;;;;;;13.80;57.84;95865.97;5092913;27;20814;-80
2022/10/31 07:30:57;;;;;;;26.30;15.07;;;;;;;13.53;57.81;95825.63;5079368;28;20022;-78
2022/10/31 07:33:23;;;;;;;29.63;16.30;;;;;;;14.09;57.97;95911.38;5091560;28;20509;-78
2022/10/31 07:35:49;;;;;;;33.63;15.90;;;;;;;13.97;57.64;95873.59;5110404;27;20024;-77
2022/10/31 07:38:15;;;;;;;34.72;16.60;;;;;;;14.19;57.92;95918.50;5113705;27;20036;-76
2022/10/31 07:40:42;;;;;;;34.83;17.10;;;;;;;14.09;58.07;95916.72;5092068;28;20031;-76
2022/10/31 07:43:09;;;;;;;37.10;16.45;;;;;;;14.10;58.01;95901.50;5110009;28;20108;-77
2022/10/31 07:45:35;;;;;;;34.90;17.50;;;;;;;14.15;58.22;95915.59;5072180;28;20052;-78
2022/10/31 07:48:02;;;;;;;30.58;17.73;;;;;;;14.23;58.09;95911.53;5068874;28;20020;-76
2022/10/31 07:50:33;;;;;;;34.65;18.83;;;;;;;14.15;58.36;95899.59;5067030;28;20028;-77
2022/10/31 07:53:05;;;;;;;39.60;19.30;;;;;;;14.30;57.89;95909.34;5090216;28;20063;-77
2022/10/31 07:55:31;;;;;;;37.85;19.27;;;;;;;14.15;57.66;95859.59;5087589;28;20032;-75
2022/10/31 07:58:02;;;;;;;33.20;17.83;;;;;;;14.39;57.84;95913.06;5092353;28;20035;-75
2022/10/31 08:00:27;;;;;;;33.05;19.33;;;;;;;14.47;57.76;95917.78;5095264;28;20032;-75
2022/10/31 08:03:00;;;;;;;43.17;20.02;;;;;;;14.29;57.58;95897.88;5071300;28;20055;-75
2022/10/31 08:05:25;;;;;;;49.28;19.30;;;;;;;14.23;57.46;95884.88;5074517;28;20040;-75
2022/10/31 08:07:51;;;;;;;43.35;19.45;;;;;;;14.23;57.43;95867.00;5088178;28;20043;-75
2022/10/31 08:10:16;;;;;;;41.17;18.73;;;;;;;14.16;57.83;95871.06;5086670;28;20032;-75
2022/10/31 08:12:41;;;;;;;34.30;18.40;;;;;;;14.16;57.60;95861.19;5070761;28;20024;-76
2022/10/31 08:15:08;;;;;;;38.33;18.25;;;;;;;14.61;57.30;95913.41;5087452;28;20107;-76
2022/10/31 08:17:37;;;;;;;34.55;18.88;;;;;;;14.49;57.90;95894.31;5096720;28;20028;-76
2022/10/31 08:20:03;;;;;;;38.40;18.05;;;;;;;14.61;57.24;95909.94;5093611;28;20413;-76
2022/10/31 08:22:29;;;;;;;34.67;18.33;;;;;;;14.35;57.77;95873.81;5088812;28;20067;-76
2022/10/31 08:24:54;;;;;;;40.78;21.08;;;;;;;14.61;57.91;95901.94;5070838;28;20036;-76
2022/10/31 08:27:19;;;;;;;35.28;18.17;;;;;;;14.70;57.76;95913.59;5087617;28;20035;-76
2022/10/31 08:29:45;;;;;;;38.78;19.38;;;;;;;14.78;57.76;95907.66;5085701;28;20024;-76
2022/10/31 08:32:10;;;;;;;40.90;18.05;;;;;;;14.91;57.04;95908.84;5088642;28;20103;-77
2022/10/31 08:34:36;;;;;;;33.65;18.45;;;;;;;14.62;57.39;95847.47;5093008;28;20472;-76
2022/10/31 08:37:01;;;;;;;40.22;17.50;;;;;;;14.96;56.85;95893.56;5067669;28;20024;-76
2022/10/31 08:39:26;;;;;;;44.70;19.75;;;;;;;15.01;56.60;95888.19;5085235;28;20032;-76
2022/10/31 08:41:52;;;;;;;35.85;19.45;;;;;;;14.96;56.62;95888.22;5083315;28;20489;-76
2022/10/31 08:44:17;;;;;;;40.78;18.38;;;;;;;15.12;56.65;95891.50;5093021;28;20511;-78
2022/10/31 08:46:42;;;;;;;37.38;19.63;;;;;;;14.92;56.50;95854.34;5108582;28;20073;-78
2022/10/31 08:49:08;;;;;;;37.70;18.45;;;;;;;15.25;56.53;95912.22;5102980;28;20120;-76
2022/10/31 08:51:33;;;;;;;52.78;22.13;;;;;;;15.36;56.71;95907.53;5075831;28;20118;-77
2022/10/31 08:53:59;;;;;;;44.88;19.45;;;;;;;15.31;56.31;95896.94;5109370;28;20103;-77
2022/10/31 08:56:24;;;;;;;40.70;19.00;;;;;;;15.43;56.38;95902.66;5103014;28;20075;-78
2022/10/31 08:58:51;;;;;;;39.35;20.25;;;;;;;15.15;56.53;95864.25;5093375;28;20065;-77
2022/10/31 09:01:16;;;;;;;30.50;18.98;;;;;;;15.35;56.00;95872.00;5076166;28;20039;-78
2022/10/31 09:03:41;;;;;;;33.13;18.13;;;;;;;15.46;55.63;95891.41;5097772;28;20470;-78
2022/10/31 09:06:08;;;;;;;32.40;19.10;;;;;;;15.38;55.50;95859.94;5098709;28;20035;-77
2022/10/31 09:08:35;;;;;;;34.40;18.58;;;;;;;15.55;55.39;95876.34;5090024;28;20040;-78
2022/10/31 09:11:01;;;;;;;36.42;18.88;;;;;;;15.57;55.53;95860.00;5074971;28;20032;-78
2022/10/31 09:13:26;;;;;;;36.38;17.95;;;;;;;15.92;55.24;95896.97;5089412;28;20046;-78
2022/10/31 09:15:52;;;;;;;37.35;18.27;;;;;;;15.43;55.16;95799.19;5107223;28;20497;-78
2022/10/31 09:18:21;;;;;;;37.65;19.00;;;;;;;16.12;54.89;95891.28;5087076;28;20063;-78
2022/10/31 09:20:48;;;;;;;33.67;18.33;;;;;;;16.05;54.92;95869.47;5090350;28;20463;-78
2022/10/31 09:23:20;;;;;;;31.65;18.17;;;;;;;16.13;54.72;95876.84;5090329;28;20035;-78
2022/10/31 09:25:46;;;;;;;41.22;17.27;;;;;;;16.14;54.86;95869.59;5076584;28;20528;-78
2022/10/31 09:28:14;;;;;;;36.25;16.73;;;;;;;16.41;54.41;95888.44;5079876;28;20074;-78
2022/10/31 09:30:39;;;;;;;33.35;16.67;;;;;;;16.21;54.21;95837.91;5086913;28;20031;-78
2022/10/31 09:33:10;;;;;;;34.97;17.02;;;;;;;16.58;54.29;95886.00;5108912;28;20028;-77
2022/10/31 09:35:36;;;;;;;54.22;18.75;;;;;;;16.65;53.96;95887.53;5099150;28;20054;-77
2022/10/31 09:38:10;;;;;;;37.30;15.73;;;;;;;16.63;53.84;95890.50;5077444;28;20062;-77
2022/10/31 09:40:36;;;;;;;30.45;16.42;;;;;;;16.71;53.78;95889.81;5104034;28;20477;-77
2022/10/31 09:43:23;;;;;;;29.63;15.32;;;;;;;16.75;53.85;95888.16;5108622;28;20035;-77
2022/10/31 09:46:07;;;;;;;28.13;15.35;;;;;;;16.87;53.36;95883.13;5090165;28;20097;-77
2022/10/31 09:48:35;;;;;;;32.50;14.23;;;;;;;17.03;53.07;95880.16;5095374;28;20032;-77
2022/10/31 09:51:12;;;;;;;27.42;14.85;;;;;;;17.18;52.57;95877.19;5077799;28;20036;-77
2022/10/31 09:53:50;;;;;;;25.02;14.02;;;;;;;17.87;51.15;95872.56;5098267;28;20477;-77
2022/10/31 09:56:20;;;;;;;32.47;13.48;;;;;;;18.85;48.46;95874.22;5108764;28;20098;-77
2022/10/31 09:58:53;;;;;;;24.58;12.45;;;;;;;19.96;46.32;95872.19;5077227;28;20028;-77
2022/10/31 10:01:42;;;;;;;20.85;12.63;;;;;;;21.47;43.19;95868.25;5091291;28;20084;-77
2022/10/31 10:04:17;;;;;;;22.95;13.05;;;;;;;22.54;40.69;95863.03;5098453;28;20016;-77
2022/10/31 10:06:47;;;;;;;25.58;11.73;;;;;;;23.25;38.68;95853.88;5093943;28;20024;-77
2022/10/31 10:09:12;;;;;;;28.38;10.55;;;;;;;23.80;37.13;95847.88;5093567;28;20409;-77
2022/10/31 10:11:52;;;;;;;26.95;10.27;;;;;;;24.52;36.19;95857.72;5111258;28;20039;-78
2022/10/31 10:14:17;;;;;;;15.73;8.70;;;;;;;24.70;35.34;95852.00;5093884;28;20059;-77
2022/10/31 10:16:49;;;;;;;20.27;9.80;;;;;;;25.11;34.76;95846.13;5107767;28;20055;-77
2022/10/31 10:19:23;;;;;;;15.50;9.70;;;;;;;25.08;34.46;95841.41;5086252;28;20042;-77
2022/10/31 10:21:58;;;;;;;22.17;9.75;;;;;;;25.01;34.99;95840.44;5081208;28;20494;-78
2022/10/31 10:24:38;;;;;;;21.48;9.32;;;;;;;24.88;34.55;95828.81;5091883;28;20035;-77
2022/10/31 10:27:10;;;;;;;18.00;9.07;;;;;;;24.27;35.80;95833.75;5110495;28;20023;-77
2022/10/31 10:29:49;;;;;;;26.30;9.13;;;;;;;24.00;35.86;95829.88;5104207;28;20024;-77
2022/10/31 10:32:24;;;;;;;15.82;6.72;;;;;;;23.38;36.06;95771.53;5092553;28;20031;-77
2022/10/31 10:34:54;;;;;;;16.70;6.90;;;;;;;23.66;36.05;95825.78;5100540;28;20058;-77
2022/10/31 10:37:28;;;;;;;16.83;8.23;;;;;;;23.55;36.64;95816.56;5103190;28;20131;-77
2022/10/31 10:40:01;;;;;;;22.95;7.38;;;;;;;23.56;36.64;95816.22;5083578;28;20053;-77
2022/10/31 10:48:15;;;;;;;15.70;6.85;;;;;;;22.76;36.62;95707.78;5097879;27;20038;-77
2022/10/31 10:50:47;;;;;;;21.58;7.05;;;;;;;23.02;36.51;95766.94;5118623;27;20052;-77
2022/10/31 10:53:31;;;;;;;19.83;7.40;;;;;;;23.16;36.86;95804.47;5115655;27;20027;-77
2022/10/31 10:56:10;;;;;;;15.23;7.28;;;;;;;23.35;36.77;95802.75;5117029;27;20401;-77
2022/10/31 10:58:37;;;;;;;17.50;5.65;;;;;;;23.17;36.71;95782.50;5108370;27;20520;-77
2022/10/31 11:01:11;;;;;;;12.98;5.70;;;;;;;23.17;37.11;95809.56;5086442;28;20039;-77
2022/10/31 11:03:40;;;;;;;11.65;5.35;;;;;;;22.78;36.37;95756.91;5106456;27;20031;-77
2022/10/31 11:06:22;;;;;;;21.08;5.00;;;;;;;22.66;36.44;95776.56;5084929;28;20039;-77
2022/10/31 11:08:48;;;;;;;9.82;5.38;;;;;;;22.92;36.38;95799.84;5084663;27;20093;-77
2022/10/31 11:11:25;;;;;;;13.77;4.43;;;;;;;23.17;35.63;95798.72;5107047;27;20083;-75
2022/10/31 11:14:04;;;;;;;11.93;5.03;;;;;;;23.53;35.63;95787.09;5127808;27;20023;-76
2022/10/31 11:16:32;;;;;;;12.32;4.90;;;;;;;23.93;35.21;95789.84;5113696;27;20032;-76
2022/10/31 11:19:19;;;;;;;18.33;6.20;;;;;;;23.65;35.01;95743.00;5092012;28;20035;-76
2022/10/31 11:21:46;;;;;;;15.07;5.53;;;;;;;23.96;34.85;95785.63;5081176;28;20486;-76
2022/10/31 11:24:22;;;;;;;9.80;5.22;;;;;;;23.89;35.04;95769.19;5102765;28;20124;-76
2022/10/31 11:26:50;;;;;;;14.20;4.97;;;;;;;23.96;34.49;95748.50;5110645;28;20028;-76
2022/10/31 11:29:25;;;;;;;16.63;5.10;;;;;;;24.54;33.94;95765.19;5091606;28;20035;-76
2022/10/31 11:31:56;;;;;;;10.10;4.18;;;;;;;24.60;33.83;95761.88;5100452;28;20050;-76
2022/10/31 11:34:32;;;;;;;15.20;5.00;;;;;;;24.04;34.75;95752.97;5104328;28;20118;-76